sensor_id;sensor_type;location;lat;lon;timestamp;pressure;altitude;pressure_sealevel;temperature;humidity
10618;BME280;5356;43.526;26.534;2023-06-04T00:01:53;99385.97;;;19.51;100.00
10618;BME280;5356;43.526;26.534;2023-06-04T00:04:19;99379.75;;;19.50;100.00
10618;BME280;5356;43.526;26.534;2023-06-04T00:06:44;99386.53;;;19.48;100.00
10618;BME280;5356;43.526;26.534;2023-06-04T00:09:10;99389.50;;;19.41;100.00
10618;BME280;5356;43.526;26.534;2023-06-04T00:11:35;99389.78;;;19.40;100.00
10618;BME280;5356;43.526;26.534;2023-06-04T00:14:02;99391.69;;;19.34;100.00
10618;BME280;5356;43.526;26.534;2023-06-04T00:16:28;99381.97;;;19.28;100.00
10618;BME280;5356;43.526;26.534;2023-06-04T00:18:53;99384.13;;;19.26;100.00
10618;BME280;5356;43.526;26.534;2023-06-04T00:21:18;99386.28;;;19.19;100.00
10618;BME280;5356;43.526;26.534;2023-06-04T00:23:44;99387.38;;;19.18;100.00
10618;BME280;5356;43.526;26.534;2023-06-04T00:26:09;99384.41;;;19.19;100.00
10618;BME280;5356;43.526;26.534;2023-06-04T00:28:35;99390.31;;;19.21;100.00
10618;BME280;5356;43.526;26.534;2023-06-04T00:31:04;99393.81;;;19.22;100.00
10618;BME280;5356;43.526;26.534;2023-06-04T00:33:29;99387.34;;;19.13;100.00
10618;BME280;5356;43.526;26.534;2023-06-04T00:35:55;99385.47;;;19.13;100.00
10618;BME280;5356;43.526;26.534;2023-06-04T00:38:20;99380.06;;;19.13;100.00
10618;BME280;5356;43.526;26.534;2023-06-04T00:40:46;99380.06;;;19.13;100.00
10618;BME280;5356;43.526;26.534;2023-06-04T00:43:11;99382.50;;;19.04;100.00
10618;BME280;5356;43.526;26.534;2023-06-04T00:45:39;99380.34;;;18.91;100.00
10618;BME280;5356;43.526;26.534;2023-06-04T00:48:05;99388.44;;;18.96;100.00
10618;BME280;5356;43.526;26.534;2023-06-04T00:50:31;99387.09;;;18.94;100.00
10618;BME280;5356;43.526;26.534;2023-06-04T00:52:58;99388.19;;;18.98;100.00
10618;BME280;5356;43.526;26.534;2023-06-04T00:55:24;99392.75;;;18.82;100.00
10618;BME280;5356;43.526;26.534;2023-06-04T00:57:50;99396.22;;;18.72;100.00
10618;BME280;5356;43.526;26.534;2023-06-04T01:00:16;99391.91;;;18.61;100.00
10618;BME280;5356;43.526;26.534;2023-06-04T01:02:43;99386.22;;;18.68;100.00
10618;BME280;5356;43.526;26.534;2023-06-04T01:05:32;99394.63;;;18.76;100.00
10618;BME280;5356;43.526;26.534;2023-06-04T01:08:01;99387.31;;;18.67;100.00
10618;BME280;5356;43.526;26.534;2023-06-04T01:10:27;99386.22;;;18.68;100.00
10618;BME280;5356;43.526;26.534;2023-06-04T01:12:52;99386.75;;;18.59;100.00
10618;BME280;5356;43.526;26.534;2023-06-04T01:15:18;99382.44;;;18.58;100.00
10618;BME280;5356;43.526;26.534;2023-06-04T01:17:47;99383.53;;;18.57;100.00
10618;BME280;5356;43.526;26.534;2023-06-04T01:20:40;99385.09;;;18.48;100.00
10618;BME280;5356;43.526;26.534;2023-06-04T01:23:46;99381.88;;;18.41;100.00
10618;BME280;5356;43.526;26.534;2023-06-04T01:26:12;99388.91;;;18.47;100.00
10618;BME280;5356;43.526;26.534;2023-06-04T01:28:39;99384.59;;;18.51;100.00
10618;BME280;5356;43.526;26.534;2023-06-04T01:31:05;99388.63;;;18.54;100.00
10618;BME280;5356;43.526;26.534;2023-06-04T01:33:34;99395.88;;;18.33;100.00
10618;BME280;5356;43.526;26.534;2023-06-04T01:36:00;99384.25;;;18.27;100.00
10618;BME280;5356;43.526;26.534;2023-06-04T01:38:26;99385.88;;;18.23;100.00
10618;BME280;5356;43.526;26.534;2023-06-04T01:40:52;99387.75;;;18.23;100.00
10618;BME280;5356;43.526;26.534;2023-06-04T01:43:21;99385.31;;;18.21;100.00
10618;BME280;5356;43.526;26.534;2023-06-04T01:45:47;99385.06;;;18.28;100.00
10618;BME280;5356;43.526;26.534;2023-06-04T01:48:13;99382.84;;;18.14;100.00
10618;BME280;5356;43.526;26.534;2023-06-04T01:50:39;99380.16;;;18.09;100.00
10618;BME280;5356;43.526;26.534;2023-06-04T01:53:05;99373.63;;;18.00;100.00
10618;BME280;5356;43.526;26.534;2023-06-04T01:55:31;99371.00;;;18.10;100.00
10618;BME280;5356;43.526;26.534;2023-06-04T01:57:58;99375.31;;;18.16;100.00
10618;BME280;5356;43.526;26.534;2023-06-04T02:00:24;99370.22;;;18.15;100.00
10618;BME280;5356;43.526;26.534;2023-06-04T02:02:49;99383.69;;;18.15;100.00
10618;BME280;5356;43.526;26.534;2023-06-04T02:05:15;99378.28;;;18.10;100.00
10618;BME280;5356;43.526;26.534;2023-06-04T02:07:42;99377.41;;;17.99;100.00
10618;BME280;5356;43.526;26.534;2023-06-04T02:10:11;99379.97;;;17.73;100.00
10618;BME280;5356;43.526;26.534;2023-06-04T02:12:38;99391.25;;;17.65;100.00
10618;BME280;5356;43.526;26.534;2023-06-04T02:15:05;99390.69;;;17.63;100.00
10618;BME280;5356;43.526;26.534;2023-06-04T02:17:31;99390.63;;;17.53;100.00
10618;BME280;5356;43.526;26.534;2023-06-04T02:20:03;99392.50;;;17.47;100.00
10618;BME280;5356;43.526;26.534;2023-06-04T02:22:29;99393.75;;;17.35;100.00
10618;BME280;5356;43.526;26.534;2023-06-04T02:24:55;99392.34;;;17.27;100.00
10618;BME280;5356;43.526;26.534;2023-06-04T02:27:20;99403.41;;;17.31;100.00
10618;BME280;5356;43.526;26.534;2023-06-04T02:29:46;99408.84;;;17.36;100.00
10618;BME280;5356;43.526;26.534;2023-06-04T02:32:11;99400.50;;;17.37;100.00
10618;BME280;5356;43.526;26.534;2023-06-04T02:34:37;99416.69;;;17.42;100.00
10618;BME280;5356;43.526;26.534;2023-06-04T02:37:02;99411.56;;;17.41;100.00
10618;BME280;5356;43.526;26.534;2023-06-04T02:39:28;99417.13;;;17.29;100.00
10618;BME280;5356;43.526;26.534;2023-06-04T02:41:54;99419.34;;;17.37;100.00
10618;BME280;5356;43.526;26.534;2023-06-04T02:44:19;99422.31;;;17.36;100.00
10618;BME280;5356;43.526;26.534;2023-06-04T02:46:45;99431.75;;;17.38;100.00
10618;BME280;5356;43.526;26.534;2023-06-04T02:49:11;99437.19;;;17.48;100.00
10618;BME280;5356;43.526;26.534;2023-06-04T02:51:40;99429.44;;;17.57;100.00
10618;BME280;5356;43.526;26.534;2023-06-04T02:54:06;99433.25;;;17.61;100.00
10618;BME280;5356;43.526;26.534;2023-06-04T02:56:31;99439.78;;;17.70;100.00
10618;BME280;5356;43.526;26.534;2023-06-04T02:58:57;99435.28;;;17.81;100.00
10618;BME280;5356;43.526;26.534;2023-06-04T03:01:23;99441.00;;;17.90;100.00
10618;BME280;5356;43.526;26.534;2023-06-04T03:03:50;99439.38;;;17.94;100.00
10618;BME280;5356;43.526;26.534;2023-06-04T03:06:17;99453.16;;;17.92;100.00
10618;BME280;5356;43.526;26.534;2023-06-04T03:08:43;99450.97;;;17.89;100.00
10618;BME280;5356;43.526;26.534;2023-06-04T03:11:08;99457.97;;;17.90;100.00
10618;BME280;5356;43.526;26.534;2023-06-04T03:13:35;99457.72;;;17.92;100.00
10618;BME280;5356;43.526;26.534;2023-06-04T03:16:01;99460.75;;;18.01;100.00
10618;BME280;5356;43.526;26.534;2023-06-04T03:18:27;99472.09;;;18.08;100.00
10618;BME280;5356;43.526;26.534;2023-06-04T03:20:54;99465.63;;;18.14;100.00
10618;BME280;5356;43.526;26.534;2023-06-04T03:23:20;99474.53;;;18.09;100.00
10618;BME280;5356;43.526;26.534;2023-06-04T03:25:45;99475.09;;;18.16;100.00
10618;BME280;5356;43.526;26.534;2023-06-04T03:28:11;99470.28;;;18.24;100.00
10618;BME280;5356;43.526;26.534;2023-06-04T03:30:37;99468.94;;;18.31;100.00
10618;BME280;5356;43.526;26.534;2023-06-04T03:33:02;99469.50;;;18.33;100.00
10618;BME280;5356;43.526;26.534;2023-06-04T03:35:28;99470.88;;;18.41;100.00
10618;BME280;5356;43.526;26.534;2023-06-04T03:37:54;99469.56;;;18.44;100.00
10618;BME280;5356;43.526;26.534;2023-06-04T03:40:19;99473.31;;;18.43;100.00
10618;BME280;5356;43.526;26.534;2023-06-04T03:42:45;99465.22;;;18.37;100.00
10618;BME280;5356;43.526;26.534;2023-06-04T03:45:10;99465.75;;;18.39;100.00
10618;BME280;5356;43.526;26.534;2023-06-04T03:47:38;99470.84;;;18.31;100.00
10618;BME280;5356;43.526;26.534;2023-06-04T03:50:04;99471.94;;;18.35;100.00
10618;BME280;5356;43.526;26.534;2023-06-04T03:52:30;99472.78;;;18.40;100.00
10618;BME280;5356;43.526;26.534;2023-06-04T03:54:56;99473.88;;;18.45;100.00
10618;BME280;5356;43.526;26.534;2023-06-04T03:57:22;99483.28;;;18.42;100.00
10618;BME280;5356;43.526;26.534;2023-06-04T03:59:47;99484.94;;;18.43;100.00
10618;BME280;5356;43.526;26.534;2023-06-04T04:02:13;99484.16;;;18.53;100.00
10618;BME280;5356;43.526;26.534;2023-06-04T04:04:38;99492.00;;;18.59;100.00
10618;BME280;5356;43.526;26.534;2023-06-04T04:07:04;99490.94;;;18.60;100.00
10618;BME280;5356;43.526;26.534;2023-06-04T04:09:29;99486.63;;;18.65;100.00
10618;BME280;5356;43.526;26.534;2023-06-04T04:11:55;99501.25;;;18.74;100.00
10618;BME280;5356;43.526;26.534;2023-06-04T04:14:20;99503.38;;;18.72;100.00
10618;BME280;5356;43.526;26.534;2023-06-04T04:16:46;99503.34;;;18.61;100.00
10618;BME280;5356;43.526;26.534;2023-06-04T04:19:12;99495.22;;;18.51;100.00
10618;BME280;5356;43.526;26.534;2023-06-04T04:21:37;99501.69;;;18.50;100.00
10618;BME280;5356;43.526;26.534;2023-06-04T04:24:03;99510.56;;;18.51;100.00
10618;BME280;5356;43.526;26.534;2023-06-04T04:26:29;99503.84;;;18.53;100.00
10618;BME280;5356;43.526;26.534;2023-06-04T04:28:55;99506.56;;;18.58;100.00
10618;BME280;5356;43.526;26.534;2023-06-04T04:31:26;99509.25;;;18.58;100.00
10618;BME280;5356;43.526;26.534;2023-06-04T04:33:54;99504.94;;;18.62;100.00
10618;BME280;5356;43.526;26.534;2023-06-04T04:36:20;99509.59;;;18.72;100.00
10618;BME280;5356;43.526;26.534;2023-06-04T04:38:45;99518.00;;;18.81;100.00
10618;BME280;5356;43.526;26.534;2023-06-04T04:41:11;99510.47;;;18.88;100.00
10618;BME280;5356;43.526;26.534;2023-06-04T04:43:37;99515.31;;;18.86;100.00
10618;BME280;5356;43.526;26.534;2023-06-04T04:46:07;99517.50;;;18.94;100.00
10618;BME280;5356;43.526;26.534;2023-06-04T04:48:33;99517.50;;;18.99;100.00
10618;BME280;5356;43.526;26.534;2023-06-04T04:50:58;99525.59;;;18.89;100.00
10618;BME280;5356;43.526;26.534;2023-06-04T04:53:24;99531.81;;;18.95;100.00
10618;BME280;5356;43.526;26.534;2023-06-04T04:55:49;99529.38;;;18.98;100.00
10618;BME280;5356;43.526;26.534;2023-06-04T04:58:15;99529.41;;;19.09;100.00
10618;BME280;5356;43.526;26.534;2023-06-04T05:00:41;99539.94;;;19.10;100.00
10618;BME280;5356;43.526;26.534;2023-06-04T05:03:07;99534.81;;;19.09;100.00
10618;BME280;5356;43.526;26.534;2023-06-04T05:05:33;99537.22;;;19.05;100.00
10618;BME280;5356;43.526;26.534;2023-06-04T05:07:59;99537.78;;;18.97;100.00
10618;BME280;5356;43.526;26.534;2023-06-04T05:10:24;99537.22;;;19.05;100.00
10618;BME280;5356;43.526;26.534;2023-06-04T05:12:54;99532.13;;;19.19;100.00
10618;BME280;5356;43.526;26.534;2023-06-04T05:15:20;99537.53;;;19.24;100.00
10618;BME280;5356;43.526;26.534;2023-06-04T05:17:45;99542.94;;;19.29;100.00
10618;BME280;5356;43.526;26.534;2023-06-04T05:20:12;99544.03;;;19.43;100.00
10618;BME280;5356;43.526;26.534;2023-06-04T05:22:38;99539.72;;;19.47;100.00
10618;BME280;5356;43.526;26.534;2023-06-04T05:25:04;99545.41;;;19.56;100.00
10618;BME280;5356;43.526;26.534;2023-06-04T05:27:31;99545.13;;;19.47;100.00
10618;BME280;5356;43.526;26.534;2023-06-04T05:30:00;99546.22;;;19.46;100.00
10618;BME280;5356;43.526;26.534;2023-06-04T05:32:26;99554.06;;;19.58;100.00
10618;BME280;5356;43.526;26.534;2023-06-04T05:34:54;99547.84;;;19.63;100.00
10618;BME280;5356;43.526;26.534;2023-06-04T05:37:25;99548.94;;;19.77;100.00
10618;BME280;5356;43.526;26.534;2023-06-04T05:39:55;99554.63;;;19.91;100.00
10618;BME280;5356;43.526;26.534;2023-06-04T05:42:22;99558.13;;;19.81;100.00
10618;BME280;5356;43.526;26.534;2023-06-04T05:44:47;99559.50;;;19.68;100.00
10618;BME280;5356;43.526;26.534;2023-06-04T05:47:13;99558.09;;;19.61;100.00
10618;BME280;5356;43.526;26.534;2023-06-04T05:49:38;99561.41;;;19.73;100.00
10618;BME280;5356;43.526;26.534;2023-06-04T05:52:04;99565.19;;;19.82;100.00
10618;BME280;5356;43.526;26.534;2023-06-04T05:54:30;99563.78;;;19.95;100.00
10618;BME280;5356;43.526;26.534;2023-06-04T05:56:56;99564.88;;;19.89;100.00
10618;BME280;5356;43.526;26.534;2023-06-04T05:59:22;99567.31;;;19.75;100.00
10618;BME280;5356;43.526;26.534;2023-06-04T06:01:47;99572.22;;;19.68;100.00
10618;BME280;5356;43.526;26.534;2023-06-04T06:04:13;99565.97;;;19.62;100.00
10618;BME280;5356;43.526;26.534;2023-06-04T06:06:39;99574.91;;;19.73;100.00
10618;BME280;5356;43.526;26.534;2023-06-04T06:09:04;99572.47;;;19.77;100.00
10618;BME280;5356;43.526;26.534;2023-06-04T06:11:30;99564.09;;;19.68;100.00
10618;BME280;5356;43.526;26.534;2023-06-04T06:13:56;99564.09;;;19.73;100.00
10618;BME280;5356;43.526;26.534;2023-06-04T06:16:21;99567.03;;;19.87;100.00
10618;BME280;5356;43.526;26.534;2023-06-04T06:18:47;99566.25;;;19.96;100.00
10618;BME280;5356;43.526;26.534;2023-06-04T06:21:12;99571.66;;;19.96;100.00
10618;BME280;5356;43.526;26.534;2023-06-04T06:23:38;99563.50;;;20.07;100.00
10618;BME280;5356;43.526;26.534;2023-06-04T06:26:03;99573.78;;;20.15;100.00
10618;BME280;5356;43.526;26.534;2023-06-04T06:28:33;99576.22;;;20.16;100.00
10618;BME280;5356;43.526;26.534;2023-06-04T06:30:59;99575.38;;;20.26;100.00
10618;BME280;5356;43.526;26.534;2023-06-04T06:33:24;99572.38;;;20.38;100.00
10618;BME280;5356;43.526;26.534;2023-06-04T06:35:50;99576.41;;;20.51;100.00
10618;BME280;5356;43.526;26.534;2023-06-04T06:38:15;99574.75;;;20.65;100.00
10618;BME280;5356;43.526;26.534;2023-06-04T06:40:41;99576.38;;;20.71;100.00
10618;BME280;5356;43.526;26.534;2023-06-04T06:43:06;99575.78;;;20.84;100.00
10618;BME280;5356;43.526;26.534;2023-06-04T06:45:33;99576.53;;;20.95;100.00
10618;BME280;5356;43.526;26.534;2023-06-04T06:47:58;99577.25;;;21.11;100.00
10618;BME280;5356;43.526;26.534;2023-06-04T06:50:24;99576.13;;;21.17;100.00
10618;BME280;5356;43.526;26.534;2023-06-04T06:52:49;99577.44;;;21.25;100.00
10618;BME280;5356;43.526;26.534;2023-06-04T06:55:15;99580.91;;;21.36;100.00
10618;BME280;5356;43.526;26.534;2023-06-04T06:57:40;99578.19;;;21.41;100.00
10618;BME280;5356;43.526;26.534;2023-06-04T07:00:06;99577.63;;;21.44;100.00
10618;BME280;5356;43.526;26.534;2023-06-04T07:02:32;99584.22;;;21.22;100.00
10618;BME280;5356;43.526;26.534;2023-06-04T07:04:57;99584.38;;;20.92;100.00
10618;BME280;5356;43.526;26.534;2023-06-04T07:07:23;99588.28;;;20.75;100.00
10618;BME280;5356;43.526;26.534;2023-06-04T07:09:49;99590.69;;;20.77;100.00
10618;BME280;5356;43.526;26.534;2023-06-04T07:12:15;99592.03;;;20.84;100.00
10618;BME280;5356;43.526;26.534;2023-06-04T07:14:40;99601.72;;;20.96;100.00
10618;BME280;5356;43.526;26.534;2023-06-04T07:17:06;99591.84;;;21.20;100.00
10618;BME280;5356;43.526;26.534;2023-06-04T07:19:31;99586.91;;;21.33;100.00
10618;BME280;5356;43.526;26.534;2023-06-04T07:21:57;99587.16;;;21.31;100.00
10618;BME280;5356;43.526;26.534;2023-06-04T07:24:22;99594.16;;;21.42;100.00
10618;BME280;5356;43.526;26.534;2023-06-04T07:29:13;99586.63;;;21.73;100.00
10618;BME280;5356;43.526;26.534;2023-06-04T07:31:39;99589.25;;;21.84;100.00
10618;BME280;5356;43.526;26.534;2023-06-04T07:34:04;99597.34;;;21.89;98.65
10618;BME280;5356;43.526;26.534;2023-06-04T07:36:30;99603.28;;;21.91;97.10
10618;BME280;5356;43.526;26.534;2023-06-04T07:38:56;99607.16;;;21.85;96.99
10618;BME280;5356;43.526;26.534;2023-06-04T07:41:23;99608.00;;;21.80;93.06
10618;BME280;5356;43.526;26.534;2023-06-04T07:43:48;99606.56;;;21.88;92.80
10618;BME280;5356;43.526;26.534;2023-06-04T07:46:14;99613.66;;;21.84;92.60
10618;BME280;5356;43.526;26.534;2023-06-04T07:48:43;99607.59;;;21.97;91.75
10618;BME280;5356;43.526;26.534;2023-06-04T07:51:09;99609.94;;;22.09;91.88
10618;BME280;5356;43.526;26.534;2023-06-04T07:53:36;99616.63;;;22.16;92.38
10618;BME280;5356;43.526;26.534;2023-06-04T07:56:03;99610.38;;;22.21;89.55
10618;BME280;5356;43.526;26.534;2023-06-04T07:58:29;99612.25;;;22.26;89.96
10618;BME280;5356;43.526;26.534;2023-06-04T08:00:55;99609.41;;;22.36;90.93
10618;BME280;5356;43.526;26.534;2023-06-04T08:03:21;99618.50;;;22.50;91.38
10618;BME280;5356;43.526;26.534;2023-06-04T08:05:46;99609.22;;;22.56;89.40
10618;BME280;5356;43.526;26.534;2023-06-04T08:08:12;99622.72;;;22.61;89.64
10618;BME280;5356;43.526;26.534;2023-06-04T08:10:39;99617.13;;;22.77;87.85
10618;BME280;5356;43.526;26.534;2023-06-04T08:13:04;99618.56;;;22.69;83.45
10618;BME280;5356;43.526;26.534;2023-06-04T08:15:30;99616.84;;;22.54;80.68
10618;BME280;5356;43.526;26.534;2023-06-04T08:17:56;99621.13;;;22.60;83.41
10618;BME280;5356;43.526;26.534;2023-06-04T08:20:23;99620.28;;;22.84;83.17
10618;BME280;5356;43.526;26.534;2023-06-04T08:22:48;99620.53;;;22.88;81.20
10618;BME280;5356;43.526;26.534;2023-06-04T08:25:14;99623.94;;;22.98;81.12
10618;BME280;5356;43.526;26.534;2023-06-04T08:27:40;99619.50;;;23.07;83.47
10618;BME280;5356;43.526;26.534;2023-06-04T08:30:06;99619.59;;;23.21;81.40
10618;BME280;5356;43.526;26.534;2023-06-04T08:32:38;99623.78;;;23.14;80.40
10618;BME280;5356;43.526;26.534;2023-06-04T08:35:05;99623.84;;;23.27;79.83
10618;BME280;5356;43.526;26.534;2023-06-04T08:37:32;99626.41;;;23.38;80.74
10618;BME280;5356;43.526;26.534;2023-06-04T08:39:57;99618.91;;;23.11;67.93
10618;BME280;5356;43.526;26.534;2023-06-04T08:42:30;99630.97;;;23.04;71.13
10618;BME280;5356;43.526;26.534;2023-06-04T08:44:56;99627.94;;;23.06;69.55
10618;BME280;5356;43.526;26.534;2023-06-04T08:47:24;99617.72;;;22.98;67.09
10618;BME280;5356;43.526;26.534;2023-06-04T08:49:52;99622.38;;;22.92;68.84
10618;BME280;5356;43.526;26.534;2023-06-04T08:52:18;99622.72;;;23.09;71.17
10618;BME280;5356;43.526;26.534;2023-06-04T08:54:49;99621.34;;;23.31;70.13
10618;BME280;5356;43.526;26.534;2023-06-04T08:57:17;99629.22;;;23.33;68.46
10618;BME280;5356;43.526;26.534;2023-06-04T08:59:45;99628.78;;;23.44;69.22
10618;BME280;5356;43.526;26.534;2023-06-04T09:02:11;99633.63;;;23.47;68.76
10618;BME280;5356;43.526;26.534;2023-06-04T09:04:39;99635.69;;;23.56;70.26
10618;BME280;5356;43.526;26.534;2023-06-04T09:07:05;99627.84;;;23.73;68.58
10618;BME280;5356;43.526;26.534;2023-06-04T09:09:37;99626.13;;;23.77;67.04
10618;BME280;5356;43.526;26.534;2023-06-04T09:12:05;99632.47;;;23.72;66.12
10618;BME280;5356;43.526;26.534;2023-06-04T09:14:33;99629.44;;;23.93;66.47
10618;BME280;5356;43.526;26.534;2023-06-04T09:16:59;99632.06;;;23.98;64.18
10618;BME280;5356;43.526;26.534;2023-06-04T09:19:24;99621.78;;;24.09;64.38
10618;BME280;5356;43.526;26.534;2023-06-04T09:24:21;99636.13;;;24.14;61.25
10618;BME280;5356;43.526;26.534;2023-06-04T09:26:47;99633.97;;;24.30;62.39
10618;BME280;5356;43.526;26.534;2023-06-04T09:29:14;99637.44;;;24.50;61.89
10618;BME280;5356;43.526;26.534;2023-06-04T09:31:40;99625.16;;;24.66;62.86
10618;BME280;5356;43.526;26.534;2023-06-04T09:34:06;99631.59;;;24.84;60.28
10618;BME280;5356;43.526;26.534;2023-06-04T09:36:36;99634.03;;;24.72;56.14
10618;BME280;5356;43.526;26.534;2023-06-04T09:39:22;99633.13;;;24.49;56.07
10618;BME280;5356;43.526;26.534;2023-06-04T09:41:58;99629.03;;;24.32;54.42
10618;BME280;5356;43.526;26.534;2023-06-04T09:44:24;99631.16;;;24.35;55.06
10618;BME280;5356;43.526;26.534;2023-06-04T09:46:57;99627.63;;;24.35;55.70
10618;BME280;5356;43.526;26.534;2023-06-04T09:49:23;99629.88;;;24.47;56.25
10618;BME280;5356;43.526;26.534;2023-06-04T09:51:50;99629.69;;;24.57;55.58
10618;BME280;5356;43.526;26.534;2023-06-04T09:54:16;99632.81;;;24.64;54.65
10618;BME280;5356;43.526;26.534;2023-06-04T09:56:41;99625.88;;;24.58;54.52
10618;BME280;5356;43.526;26.534;2023-06-04T09:59:08;99628.38;;;24.68;54.91
10618;BME280;5356;43.526;26.534;2023-06-04T10:01:39;99624.75;;;24.86;54.76
10618;BME280;5356;43.526;26.534;2023-06-04T10:04:07;99625.91;;;25.08;54.81
10618;BME280;5356;43.526;26.534;2023-06-04T10:06:34;99629.34;;;25.27;53.57
10618;BME280;5356;43.526;26.534;2023-06-04T10:09:05;99624.34;;;25.21;52.24
10618;BME280;5356;43.526;26.534;2023-06-04T10:11:41;99622.09;;;25.37;52.42
10618;BME280;5356;43.526;26.534;2023-06-04T10:14:23;99625.00;;;25.40;51.40
10618;BME280;5356;43.526;26.534;2023-06-04T10:16:51;99630.31;;;25.59;52.96
10618;BME280;5356;43.526;26.534;2023-06-04T10:19:18;99626.63;;;25.64;51.00
10618;BME280;5356;43.526;26.534;2023-06-04T10:21:43;99633.28;;;25.71;50.68
10618;BME280;5356;43.526;26.534;2023-06-04T10:24:09;99633.09;;;25.68;48.91
10618;BME280;5356;43.526;26.534;2023-06-04T10:26:35;99619.00;;;25.74;50.61
10618;BME280;5356;43.526;26.534;2023-06-04T10:29:02;99622.38;;;25.94;51.35
10618;BME280;5356;43.526;26.534;2023-06-04T10:31:28;99627.28;;;26.06;50.16
10618;BME280;5356;43.526;26.534;2023-06-04T10:33:57;99615.00;;;26.26;50.26
10618;BME280;5356;43.526;26.534;2023-06-04T10:36:24;99626.41;;;26.19;48.86
10618;BME280;5356;43.526;26.534;2023-06-04T10:38:53;99624.72;;;26.09;49.62
10618;BME280;5356;43.526;26.534;2023-06-04T10:41:20;99618.78;;;26.07;49.41
10618;BME280;5356;43.526;26.534;2023-06-04T10:43:51;99613.84;;;26.18;49.29
10618;BME280;5356;43.526;26.534;2023-06-04T10:46:20;99622.72;;;26.24;48.23
10618;BME280;5356;43.526;26.534;2023-06-04T10:48:53;99617.06;;;26.20;48.25
10618;BME280;5356;43.526;26.534;2023-06-04T10:51:34;99605.13;;;26.38;48.98
10618;BME280;5356;43.526;26.534;2023-06-04T10:54:02;99606.06;;;26.34;47.80
10618;BME280;5356;43.526;26.534;2023-06-04T10:56:35;99603.50;;;26.37;47.46
10618;BME280;5356;43.526;26.534;2023-06-04T10:59:13;99616.28;;;26.19;47.15
10618;BME280;5356;43.526;26.534;2023-06-04T11:01:39;99618.34;;;26.14;48.28
10618;BME280;5356;43.526;26.534;2023-06-04T11:04:05;99606.19;;;26.29;47.76
10618;BME280;5356;43.526;26.534;2023-06-04T11:06:31;99614.38;;;26.29;47.52
10618;BME280;5356;43.526;26.534;2023-06-04T11:09:05;99612.59;;;26.24;47.47
10618;BME280;5356;43.526;26.534;2023-06-04T11:11:31;99609.00;;;26.15;47.66
10618;BME280;5356;43.526;26.534;2023-06-04T11:14:12;99619.34;;;26.27;48.65
10618;BME280;5356;43.526;26.534;2023-06-04T11:16:38;99605.81;;;26.44;47.91
10618;BME280;5356;43.526;26.534;2023-06-04T11:19:04;99601.59;;;26.78;48.84
10618;BME280;5356;43.526;26.534;2023-06-04T11:21:30;99610.97;;;26.94;48.04
10618;BME280;5356;43.526;26.534;2023-06-04T11:23:57;99610.19;;;27.02;48.34
10618;BME280;5356;43.526;26.534;2023-06-04T11:26:38;99616.16;;;27.13;47.39
10618;BME280;5356;43.526;26.534;2023-06-04T11:29:09;99611.09;;;26.89;46.29
10618;BME280;5356;43.526;26.534;2023-06-04T11:31:47;99617.38;;;26.81;46.67
10618;BME280;5356;43.526;26.534;2023-06-04T11:34:23;99608.19;;;26.77;47.01
10618;BME280;5356;43.526;26.534;2023-06-04T11:36:49;99604.84;;;26.97;46.57
10618;BME280;5356;43.526;26.534;2023-06-04T11:39:15;99606.31;;;27.03;46.92
10618;BME280;5356;43.526;26.534;2023-06-04T11:41:41;99600.03;;;27.12;45.99
10618;BME280;5356;43.526;26.534;2023-06-04T11:44:07;99604.06;;;27.05;45.54
10618;BME280;5356;43.526;26.534;2023-06-04T11:46:39;99606.28;;;26.86;45.15
10618;BME280;5356;43.526;26.534;2023-06-04T11:49:05;99593.44;;;26.95;46.28
10618;BME280;5356;43.526;26.534;2023-06-04T11:51:31;99595.84;;;27.05;46.28
10618;BME280;5356;43.526;26.534;2023-06-04T11:53:58;99604.88;;;27.06;45.00
10618;BME280;5356;43.526;26.534;2023-06-04T11:56:24;99601.06;;;27.16;44.77
10618;BME280;5356;43.526;26.534;2023-06-04T11:58:51;99601.88;;;27.25;45.02
10618;BME280;5356;43.526;26.534;2023-06-04T12:01:17;99600.03;;;27.12;44.97
10618;BME280;5356;43.526;26.534;2023-06-04T12:03:43;99596.09;;;27.18;45.06
10618;BME280;5356;43.526;26.534;2023-06-04T12:06:18;99607.03;;;27.35;44.85
10618;BME280;5356;43.526;26.534;2023-06-04T12:08:53;99598.19;;;27.29;45.01
10618;BME280;5356;43.526;26.534;2023-06-04T12:13:55;99605.75;;;27.59;44.55
10618;BME280;5356;43.526;26.534;2023-06-04T12:16:21;99605.91;;;27.45;43.61
10618;BME280;5356;43.526;26.534;2023-06-04T12:18:47;99606.69;;;27.28;43.45
10618;BME280;5356;43.526;26.534;2023-06-04T12:21:21;99608.94;;;27.17;42.88
10618;BME280;5356;43.526;26.534;2023-06-04T12:24:05;99602.66;;;27.17;42.73
10618;BME280;5356;43.526;26.534;2023-06-04T12:26:31;99599.94;;;27.34;44.23
10618;BME280;5356;43.526;26.534;2023-06-04T12:29:01;99598.03;;;27.52;43.40
10618;BME280;5356;43.526;26.534;2023-06-04T12:31:27;99602.66;;;27.51;43.24
10618;BME280;5356;43.526;26.534;2023-06-04T12:33:58;99595.09;;;27.31;42.89
10618;BME280;5356;43.526;26.534;2023-06-04T12:36:24;99598.63;;;27.23;43.23
10618;BME280;5356;43.526;26.534;2023-06-04T12:38:50;99593.34;;;27.35;43.70
10618;BME280;5356;43.526;26.534;2023-06-04T12:41:16;99598.81;;;27.26;42.19
10618;BME280;5356;43.526;26.534;2023-06-04T12:43:41;99594.56;;;27.12;43.20
10618;BME280;5356;43.526;26.534;2023-06-04T12:46:07;99598.00;;;27.26;42.86
10618;BME280;5356;43.526;26.534;2023-06-04T12:48:32;99598.94;;;27.13;42.31
10618;BME280;5356;43.526;26.534;2023-06-04T12:50:58;99597.28;;;26.94;42.52
10618;BME280;5356;43.526;26.534;2023-06-04T12:53:24;99602.63;;;27.08;42.77
10618;BME280;5356;43.526;26.534;2023-06-04T12:55:49;99593.59;;;26.99;42.00
10618;BME280;5356;43.526;26.534;2023-06-04T12:58:15;99591.00;;;26.85;42.09
10618;BME280;5356;43.526;26.534;2023-06-04T13:00:42;99593.47;;;27.13;42.98
10618;BME280;5356;43.526;26.534;2023-06-04T13:03:07;99597.50;;;27.06;42.07